TAF KLNK
AMD KLNK 082133Z 0822/0918 16014KT P6SM SKC FM090900 27007KT P6SM SCT035 BKN250 WS020/19040KT FM091500 27013G20KT P6SM SCT050 SCT250=
METAR KLNK
WC KLNK
WS KLNK
WV KLNK